Time;durP1;ratioP1;P1;durP2;ratioP2;P2;SDS_P1;SDS_P2;PMS_P1;PMS_P2;Temp;Humidity;BMP_temperature;BMP_pressure;BME280_temperature;BME280_humidity;BME280_pressure;Samples;Min_cycle;Max_cycle;Signal;HPM_P1;HPM_P2
2022/12/02 00:06:39;;;;;;;11.20;6.07;;;0.70;99.90;;;;;;20265960;23;20090;-58
2022/12/02 00:16:41;;;;;;;10.45;6.03;;;0.70;99.90;;;;;;20246249;23;20125;-50
2022/12/02 00:26:44;;;;;;;10.00;5.90;;;0.70;99.90;;;;;;20213836;23;20120;-57
2022/12/02 00:36:46;;;;;;;12.60;6.15;;;0.70;99.90;;;;;;20196391;23;20118;-59
2022/12/02 00:46:48;;;;;;;10.98;6.05;;;0.70;99.90;;;;;;20229304;23;20141;-56
2022/12/02 00:56:51;;;;;;;9.40;5.82;;;0.70;99.90;;;;;;20247645;23;20498;-59
2022/12/02 01:06:54;;;;;;;13.48;6.45;;;0.70;99.90;;;;;;20213335;23;20042;-54
2022/12/02 01:16:56;;;;;;;11.68;6.13;;;0.70;99.90;;;;;;20192817;23;20481;-54
2022/12/02 01:26:58;;;;;;;11.45;6.30;;;0.70;99.90;;;;;;20735056;23;20072;-53
2022/12/02 01:37:01;;;;;;;10.90;6.30;;;0.80;99.90;;;;;;20250984;23;20061;-58
2022/12/02 01:47:04;;;;;;;12.20;6.65;;;0.80;99.90;;;;;;20243326;23;20504;-53
2022/12/02 01:57:10;;;;;;;11.32;7.07;;;0.80;99.90;;;;;;20234676;23;20042;-60
2022/12/02 02:07:47;;;;;;;12.00;7.03;;;0.80;99.90;;;;;;20175725;23;20099;-59
2022/12/02 02:17:57;;;;;;;11.60;7.40;;;0.70;99.90;;;;;;20178215;23;20477;31
2022/12/02 02:28:00;;;;;;;11.18;7.35;;;0.70;99.90;;;;;;20074497;23;20276;-60
2022/12/02 02:38:08;;;;;;;13.55;7.60;;;0.70;99.90;;;;;;20230229;23;20476;-54
2022/12/02 02:48:12;;;;;;;14.63;7.80;;;0.70;99.90;;;;;;20254077;23;20057;-59
2022/12/02 02:58:15;;;;;;;12.90;7.80;;;0.70;99.90;;;;;;20222483;23;20087;-52
2022/12/02 03:08:23;;;;;;;12.88;7.70;;;0.70;99.90;;;;;;20200505;23;20077;-60
2022/12/02 03:18:34;;;;;;;11.30;6.45;;;0.70;99.90;;;;;;20226569;23;20073;31
2022/12/02 03:28:36;;;;;;;;;;;0.80;99.90;;;;;;20130869;23;20045;-52
2022/12/02 03:38:38;;;;;;;10.25;6.00;;;0.80;99.90;;;;;;20167677;23;19924;-59
2022/12/02 03:48:41;;;;;;;9.95;5.25;;;0.90;99.90;;;;;;20217757;23;20062;-55
2022/12/02 03:58:46;;;;;;;10.77;5.28;;;1.00;99.90;;;;;;20202669;23;20349;-53
2022/12/02 04:08:49;;;;;;;12.07;7.10;;;1.10;99.90;;;;;;20228265;23;20081;-54
2022/12/02 04:18:51;;;;;;;11.02;6.32;;;1.10;99.90;;;;;;20196667;23;20054;-51
2022/12/02 04:28:54;;;;;;;9.73;5.88;;;1.10;99.90;;;;;;20243392;23;20065;-60
2022/12/02 04:38:56;;;;;;;9.45;5.57;;;1.10;99.90;;;;;;20249084;23;20474;-51
2022/12/02 04:48:58;;;;;;;9.27;5.50;;;1.10;99.90;;;;;;20232999;23;20049;-60
2022/12/02 04:59:01;;;;;;;10.02;6.40;;;1.20;99.90;;;;;;20250108;23;20042;-67
2022/12/02 05:09:03;;;;;;;8.77;5.03;;;1.20;99.90;;;;;;20197458;23;20053;-53
2022/12/02 05:19:06;;;;;;;9.18;5.22;;;1.20;99.90;;;;;;20245850;23;20472;-53
2022/12/02 05:29:08;;;;;;;8.02;4.72;;;1.10;99.90;;;;;;20253696;23;20054;-60
2022/12/02 05:39:10;;;;;;;7.88;4.40;;;1.00;99.90;;;;;;20223376;23;20525;-52
2022/12/02 05:49:23;;;;;;;8.57;4.97;;;0.90;99.90;;;;;;20207362;23;1241647;-60
2022/12/02 05:59:36;;;;;;;9.18;5.47;;;0.80;99.90;;;;;;20170006;23;20546;-58
2022/12/02 06:09:38;;;;;;;10.95;5.35;;;0.70;99.90;;;;;;20213179;23;20118;-53
2022/12/02 06:19:45;;;;;;;8.68;5.28;;;0.60;99.90;;;;;;20214580;23;20064;-59
2022/12/02 06:29:58;;;;;;;11.48;6.13;;;0.60;99.90;;;;;;20264309;23;20058;-53
2022/12/02 06:40:04;;;;;;;11.57;5.93;;;0.60;99.90;;;;;;20215026;23;20057;-60
2022/12/02 06:50:28;;;;;;;14.52;7.72;;;0.50;99.90;;;;;;20149704;23;20051;-53
2022/12/02 07:00:32;;;;;;;13.90;6.60;;;0.60;99.90;;;;;;20188497;23;20105;-55
2022/12/02 07:10:42;;;;;;;13.55;7.60;;;0.70;99.90;;;;;;20189271;24;20054;31
2022/12/02 07:20:45;;;;;;;13.25;7.80;;;0.70;99.90;;;;;;20137842;23;20470;-54
2022/12/02 07:31:00;;;;;;;13.38;7.13;;;0.80;99.90;;;;;;20248716;23;20057;-59
2022/12/02 07:41:02;;;;;;;12.32;7.00;;;1.10;99.90;;;;;;20232992;23;20605;-53
2022/12/02 07:51:05;;;;;;;12.07;7.15;;;1.40;99.90;;;;;;20220083;23;20053;-60
2022/12/02 08:01:08;;;;;;;12.45;7.60;;;1.60;99.90;;;;;;20260608;23;20054;-53
2022/12/02 08:11:19;;;;;;;13.65;7.57;;;2.00;99.90;;;;;;20188237;23;20581;31
2022/12/02 08:21:21;;;;;;;11.50;7.00;;;2.60;99.90;;;;;;20114127;23;20470;-60
2022/12/02 08:31:23;;;;;;;12.40;6.78;;;3.20;99.90;;;;;;20272493;23;20054;-54
2022/12/02 08:41:25;;;;;;;9.98;6.50;;;3.30;99.90;;;;;;20272600;23;20057;-60
2022/12/02 08:51:27;;;;;;;11.25;7.25;;;3.50;99.90;;;;;;20251161;23;20513;-55
2022/12/02 09:01:30;;;;;;;11.73;7.60;;;3.40;99.90;;;;;;20207805;23;20046;-56
2022/12/02 09:11:33;;;;;;;15.07;9.48;;;3.10;99.90;;;;;;20245034;23;20141;-60
2022/12/02 09:21:36;;;;;;;13.95;8.95;;;2.90;99.90;;;;;;20214237;23;20444;-67
2022/12/02 09:31:38;;;;;;;13.00;8.85;;;2.90;99.90;;;;;;20244832;23;20508;-61
2022/12/02 09:41:40;;;;;;;16.33;10.32;;;3.00;99.90;;;;;;20190989;23;20061;-52
2022/12/02 09:51:43;;;;;;;15.65;9.88;;;3.10;99.90;;;;;;20233345;23;20117;-61
2022/12/02 10:01:47;;;;;;;16.13;10.50;;;2.90;99.90;;;;;;20179766;23;20549;-60
2022/12/02 10:11:50;;;;;;;13.27;9.57;;;2.70;99.90;;;;;;20222774;23;20073;-56
2022/12/02 10:21:52;;;;;;;13.98;9.30;;;2.80;99.90;;;;;;20265191;23;20087;-59
2022/12/02 10:32:17;;;;;;;16.48;10.57;;;2.90;99.90;;;;;;20233269;23;20577;-53
2022/12/02 10:42:20;;;;;;;17.00;11.18;;;3.10;99.90;;;;;;20235356;23;20082;-60
2022/12/02 10:52:53;;;;;;;15.23;10.52;;;3.20;99.90;;;;;;20240427;23;20045;-56
2022/12/02 11:02:57;;;;;;;15.98;10.60;;;3.00;99.90;;;;;;20224254;23;20058;-61
2022/12/02 11:13:51;;;;;;;14.30;9.85;;;2.70;99.90;;;;;;20209621;23;20728;-61
2022/12/02 11:24:21;;;;;;;13.52;8.88;;;2.70;99.90;;;;;;20274798;23;20028;-54
2022/12/02 11:34:38;;;;;;;13.32;8.43;;;2.60;99.90;;;;;;20223521;23;20114;-54
2022/12/02 11:44:40;;;;;;;11.15;7.25;;;2.50;99.90;;;;;;20223347;23;20050;-55
2022/12/02 12:05:05;;;;;;;57.33;12.88;;;2.60;99.90;;;;;;20167977;23;20565;-60
2022/12/02 12:15:09;;;;;;;452.73;23.90;;;2.50;99.90;;;;;;20233452;23;20565;-57
2022/12/02 12:25:40;;;;;;;14.60;9.90;;;2.30;99.90;;;;;;20257105;23;20111;-53
2022/12/02 12:35:43;;;;;;;23.27;10.02;;;2.20;99.90;;;;;;20220606;23;20065;-57
2022/12/02 12:45:45;;;;;;;11.98;7.57;;;2.40;99.90;;;;;;20223661;23;20141;-51
2022/12/02 12:55:48;;;;;;;68.07;10.27;;;2.50;99.90;;;;;;20238315;23;20041;-61
2022/12/02 13:05:50;;;;;;;13.25;9.00;;;2.30;99.90;;;;;;20170941;23;20091;-60
2022/12/02 13:16:13;;;;;;;10.93;7.25;;;2.10;99.90;;;;;;20217936;23;20083;-55
2022/12/02 13:26:15;;;;;;;10.38;5.65;;;2.10;99.90;;;;;;20253150;23;20065;-56
2022/12/02 13:36:18;;;;;;;6.85;4.80;;;2.30;99.90;;;;;;20339999;23;20154;-60
2022/12/02 13:46:21;;;;;;;5.00;3.22;;;2.30;99.90;;;;;;20239677;23;20201;-52
2022/12/02 13:56:23;;;;;;;54.00;10.05;;;2.50;99.90;;;;;;20641161;23;20057;-56
2022/12/02 14:06:26;;;;;;;15.27;8.02;;;2.50;99.90;;;;;;20203859;23;20057;-55
2022/12/02 14:16:28;;;;;;;34.20;9.88;;;2.30;99.90;;;;;;20164172;23;1995064;-52
2022/12/02 14:26:31;;;;;;;33.55;8.75;;;2.10;99.90;;;;;;20247080;23;20065;-54
2022/12/02 14:36:33;;;;;;;15.27;9.10;;;1.90;99.90;;;;;;20248153;23;20510;-57
2022/12/02 14:46:36;;;;;;;12.75;8.95;;;1.80;99.90;;;;;;20273883;23;20053;-55
2022/12/02 14:56:38;;;;;;;50.50;10.15;;;1.60;99.90;;;;;;20194606;23;20062;-56
2022/12/02 15:06:40;;;;;;;19.08;11.13;;;1.40;99.90;;;;;;20202868;23;20057;-61
2022/12/02 15:16:42;;;;;;;15.15;9.55;;;1.30;99.90;;;;;;20427823;23;20041;-49
2022/12/02 15:26:45;;;;;;;15.05;9.75;;;1.20;99.90;;;;;;20230285;23;20100;-60
2022/12/02 15:36:50;;;;;;;13.63;9.10;;;1.20;99.90;;;;;;20446922;23;20061;-59
2022/12/02 15:46:52;;;;;;;16.17;10.35;;;1.20;99.90;;;;;;20170675;23;20081;-59
2022/12/02 15:56:57;;;;;;;15.00;10.25;;;1.20;99.90;;;;;;20240437;23;20062;-55
2022/12/02 16:06:59;;;;;;;16.55;10.50;;;1.10;99.90;;;;;;20241573;23;20135;-57
2022/12/02 16:17:02;;;;;;;14.40;9.45;;;1.10;99.90;;;;;;20231929;23;20053;-55
2022/12/02 16:27:05;;;;;;;12.90;8.60;;;1.00;99.90;;;;;;20217721;23;20066;-57
2022/12/02 16:37:25;;;;;;;9.82;6.75;;;1.00;99.90;;;;;;20151335;23;20125;-61
2022/12/02 16:47:28;;;;;;;9.68;5.57;;;1.00;99.90;;;;;;20252246;23;20061;-55
2022/12/02 16:57:50;;;;;;;7.80;5.30;;;1.10;99.90;;;;;;20622156;23;20070;-59
2022/12/02 17:07:55;;;;;;;5.10;3.55;;;1.10;99.90;;;;;;20496334;23;20122;-51
2022/12/02 17:17:57;;;;;;;7.25;4.38;;;1.20;99.90;;;;;;20238219;23;20066;-58
2022/12/02 17:28:01;;;;;;;5.60;3.67;;;1.20;99.90;;;;;;20253714;23;20062;-61
2022/12/02 17:38:03;;;;;;;6.57;3.97;;;1.30;99.90;;;;;;20238791;23;20034;-57
2022/12/02 17:58:28;;;;;;;5.28;3.50;;;1.20;99.90;;;;;;20208966;23;20050;-61
2022/12/02 18:08:37;;;;;;;5.53;3.53;;;1.10;99.90;;;;;;20585011;23;20073;31
2022/12/02 18:18:39;;;;;;;7.50;4.72;;;1.00;99.90;;;;;;20294733;23;20090;-52
2022/12/02 18:28:42;;;;;;;5.75;3.92;;;1.00;99.90;;;;;;20354605;23;20114;-60
2022/12/02 18:38:45;;;;;;;4.97;3.38;;;0.90;99.90;;;;;;20234074;23;20075;-68
2022/12/02 18:48:47;;;;;;;7.13;4.20;;;0.60;99.90;;;;;;20208862;23;20058;-56
2022/12/02 18:58:52;;;;;;;8.35;5.13;;;0.20;99.90;;;;;;20226521;23;20134;-61
2022/12/02 19:08:55;;;;;;;7.10;4.28;;;0.20;99.90;;;;;;20244007;23;20061;-56
2022/12/02 19:19:14;;;;;;;6.07;4.20;;;0.20;99.90;;;;;;20392882;23;20062;31
2022/12/02 19:29:20;;;;;;;7.07;4.60;;;0.30;99.90;;;;;;20376105;23;19927;-61
2022/12/02 19:39:22;;;;;;;6.18;4.22;;;0.40;99.90;;;;;;20263387;23;20098;-55
2022/12/02 19:49:25;;;;;;;7.78;4.25;;;0.50;99.90;;;;;;20197686;23;20057;-52
2022/12/02 19:59:27;;;;;;;6.40;3.58;;;0.50;99.90;;;;;;20246297;23;20471;-61
2022/12/02 20:09:29;;;;;;;7.43;4.43;;;0.40;99.90;;;;;;20261338;23;20058;-56
2022/12/02 20:19:32;;;;;;;7.22;4.32;;;0.20;99.90;;;;;;20248710;23;20122;-61
2022/12/02 20:29:35;;;;;;;7.68;4.50;;;0.20;99.90;;;;;;20251484;23;20137;-55
2022/12/02 20:39:39;;;;;;;6.35;3.90;;;0.30;99.90;;;;;;20159325;23;20587;-54
2022/12/02 20:49:41;;;;;;;5.97;4.05;;;0.40;99.90;;;;;;20280848;23;20447;-62
2022/12/02 20:59:44;;;;;;;5.68;4.03;;;0.50;99.90;;;;;;20239798;23;20134;-57
2022/12/02 21:09:47;;;;;;;7.50;4.47;;;0.50;99.90;;;;;;20211324;23;20061;-57
2022/12/02 21:19:49;;;;;;;7.30;4.82;;;0.50;99.90;;;;;;20882411;23;21862;-56
2022/12/02 21:30:08;;;;;;;9.65;5.97;;;0.70;99.90;;;;;;20200061;23;20470;-60
2022/12/02 21:40:13;;;;;;;9.30;5.88;;;0.90;99.90;;;;;;20209716;23;20066;-54
2022/12/02 21:50:16;;;;;;;6.85;4.22;;;0.80;99.90;;;;;;20240590;23;20053;-53
2022/12/02 22:00:19;;;;;;;8.45;4.10;;;0.70;99.90;;;;;;20247252;23;20058;-53
2022/12/02 22:10:24;;;;;;;9.77;6.55;;;0.60;99.90;;;;;;20264404;23;21244;-57
2022/12/02 22:20:26;;;;;;;4.78;2.95;;;0.80;99.90;;;;;;20252758;23;20049;-61
2022/12/02 22:30:29;;;;;;;3.92;2.65;;;0.70;99.90;;;;;;20192328;23;20057;-61
2022/12/02 22:40:32;;;;;;;3.65;2.80;;;0.90;99.90;;;;;;20181385;23;1438030;-57
2022/12/02 22:50:34;;;;;;;4.82;2.88;;;1.10;99.90;;;;;;20269765;23;20508;-60
2022/12/02 23:00:37;;;;;;;3.88;2.40;;;0.90;99.90;;;;;;20229146;23;20449;-56
2022/12/02 23:10:39;;;;;;;3.15;2.13;;;0.90;99.90;;;;;;20224114;23;20057;-60
2022/12/02 23:20:41;;;;;;;4.35;2.80;;;0.60;99.90;;;;;;20215294;23;20093;-52
2022/12/02 23:30:44;;;;;;;4.50;3.10;;;0.40;99.90;;;;;;20256312;23;20134;-57
2022/12/02 23:40:47;;;;;;;4.32;2.80;;;0.30;99.90;;;;;;20245768;23;20057;-61
2022/12/02 23:50:49;;;;;;;4.50;3.03;;;0.50;99.90;;;;;;20246289;23;20054;-52
